createdAt,value
2022-12-16T00:01:20.874Z,97057.56
2022-12-16T00:04:22.966Z,97045.59
2022-12-16T00:07:24.958Z,97053.25
2022-12-16T00:10:47.436Z,97049.41
2022-12-16T00:13:50.048Z,97037.66
2022-12-16T00:16:52.363Z,97034.13
2022-12-16T00:19:54.044Z,97044.59
2022-12-16T00:22:58.313Z,97030.25
2022-12-16T00:26:00.689Z,97027.63
2022-12-16T00:29:05.504Z,97029.66
2022-12-16T00:32:07.368Z,97037.06
2022-12-16T00:35:10.078Z,97038.94
2022-12-16T00:38:12.093Z,97045.72
2022-12-16T00:41:14.011Z,97042.34
2022-12-16T00:44:15.730Z,97037.06
2022-12-16T00:47:22.807Z,97048.09
2022-12-16T00:50:24.955Z,97038.81
2022-12-16T00:53:26.847Z,97039.88
2022-12-16T00:56:28.813Z,97040.06
2022-12-16T00:59:30.647Z,97026.91
2022-12-16T01:02:32.958Z,97027.38
2022-12-16T01:05:34.905Z,97024.56
2022-12-16T01:08:39.168Z,97017.75
2022-12-16T01:11:41.979Z,97017.03
2022-12-16T01:14:44.230Z,97013.03
2022-12-16T01:17:46.314Z,97009.88
2022-12-16T01:20:48.198Z,97011.84
2022-12-16T01:23:50.128Z,96995.41
2022-12-16T01:26:52.454Z,96994.81
2022-12-16T01:29:54.581Z,96986.75
2022-12-16T01:32:57.183Z,96976.88
2022-12-16T01:36:03.921Z,96973.81
2022-12-16T01:39:05.652Z,96959.00
2022-12-16T01:42:15.458Z,96953.16
2022-12-16T01:45:28.920Z,96942.31
2022-12-16T01:48:36.604Z,96941.16
2022-12-16T01:51:50.460Z,96931.31
2022-12-16T01:55:01.443Z,96932.00
2022-12-16T01:58:07.836Z,96923.66
2022-12-16T02:01:10.745Z,96920.47
2022-12-16T02:04:13.473Z,96906.16
2022-12-16T02:07:16.177Z,96897.69
2022-12-16T02:10:19.800Z,96895.34
2022-12-16T02:14:01.930Z,96883.38
2022-12-16T02:17:22.702Z,96884.19
2022-12-16T02:20:31.047Z,96884.06
2022-12-16T02:23:51.630Z,96866.44
2022-12-16T02:26:58.471Z,96856.59
2022-12-16T02:30:27.192Z,96847.66
2022-12-16T02:33:48.072Z,96835.78
2022-12-16T02:37:10.761Z,96822.38
2022-12-16T02:40:27.601Z,96820.47
2022-12-16T02:43:52.008Z,96808.59
2022-12-16T02:46:56.280Z,96799.88
2022-12-16T02:49:58.704Z,96782.84
2022-12-16T02:53:03.301Z,96778.19
2022-12-16T02:56:27.270Z,96777.16
2022-12-16T02:59:44.497Z,96778.31
2022-12-16T03:02:50.125Z,96776.09
2022-12-16T03:05:53.403Z,96780.09
2022-12-16T03:08:57.530Z,96766.47
2022-12-16T03:12:02.448Z,96751.28
2022-12-16T03:15:05.786Z,96755.63
2022-12-16T03:18:10.074Z,96757.25
2022-12-16T03:21:13.787Z,96749.94
2022-12-16T03:24:16.118Z,96738.53
2022-12-16T03:27:22.019Z,96738.53
2022-12-16T03:30:28.784Z,96744.34
2022-12-16T03:33:46.208Z,96748.56
2022-12-16T03:36:51.919Z,96742.69
2022-12-16T03:39:56.930Z,96741.50
2022-12-16T03:43:01.514Z,96743.03
2022-12-16T03:46:14.963Z,96749.63
2022-12-16T03:49:16.956Z,96749.94
2022-12-16T03:52:18.870Z,96743.69
2022-12-16T03:55:21.066Z,96728.69
2022-12-16T03:58:22.909Z,96728.44
2022-12-16T04:01:25.137Z,96731.31
2022-12-16T04:04:27.139Z,96729.25
2022-12-16T04:07:28.957Z,96722.66
2022-12-16T04:10:50.018Z,96708.19
2022-12-16T04:14:10.449Z,96704.09
2022-12-16T04:17:31.712Z,96690.91
2022-12-16T04:20:55.619Z,96679.97
2022-12-16T04:24:16.516Z,96673.25
2022-12-16T04:27:27.941Z,96673.41
2022-12-16T04:30:34.881Z,96659.41
2022-12-16T04:33:55.510Z,96658.84
2022-12-16T04:37:18.546Z,96653.09
2022-12-16T04:40:38.797Z,96654.59
2022-12-16T04:43:59.471Z,96657.19
2022-12-16T04:47:20.268Z,96650.69
2022-12-16T04:50:40.815Z,96647.00
2022-12-16T04:54:01.331Z,96642.81
2022-12-16T04:57:21.904Z,96621.50
2022-12-16T05:00:42.726Z,96615.97
2022-12-16T05:04:03.298Z,96601.97
2022-12-16T05:07:23.990Z,96593.72
2022-12-16T05:10:44.445Z,96588.94
2022-12-16T05:14:04.928Z,96584.31
2022-12-16T05:17:25.080Z,96575.03
2022-12-16T05:20:47.812Z,96576.97
2022-12-16T05:24:08.150Z,96574.81
2022-12-16T05:27:28.965Z,96559.03
2022-12-16T05:30:49.388Z,96575.38
2022-12-16T05:34:09.590Z,96564.22
2022-12-16T05:37:30.234Z,96557.41
2022-12-16T05:40:50.967Z,96567.88
2022-12-16T05:44:11.545Z,96569.25
2022-12-16T05:47:32.298Z,96565.19
2022-12-16T05:50:53.350Z,96561.94
2022-12-16T05:54:16.284Z,96570.13
2022-12-16T05:57:36.504Z,96564.53
2022-12-16T06:00:57.118Z,96574.44
2022-12-16T06:04:19.530Z,96579.63
2022-12-16T06:07:40.388Z,96585.25
2022-12-16T06:11:00.890Z,96578.84
2022-12-16T06:14:21.324Z,96585.13
2022-12-16T06:17:42.231Z,96591.69
2022-12-16T06:21:05.254Z,96606.09
2022-12-16T06:24:25.685Z,96608.28
2022-12-16T06:27:46.372Z,96605.84
2022-12-16T06:31:06.923Z,96604.53
2022-12-16T06:34:27.438Z,96620.63
2022-12-16T06:37:48.131Z,96621.16
2022-12-16T06:41:11.117Z,96623.03
2022-12-16T06:44:31.837Z,96626.47
2022-12-16T06:47:52.355Z,96635.75
2022-12-16T06:51:13.151Z,96643.72
2022-12-16T06:54:33.532Z,96643.00
2022-12-16T06:57:54.884Z,96654.00
2022-12-16T07:01:15.288Z,96660.41
2022-12-16T07:04:35.880Z,96670.00
2022-12-16T07:07:56.443Z,96690.72
2022-12-16T07:11:17.492Z,96704.69
2022-12-16T07:14:40.781Z,96707.88
2022-12-16T07:18:03.709Z,96704.59
2022-12-16T07:21:24.744Z,96698.56
2022-12-16T07:24:45.320Z,96704.34
2022-12-16T07:28:09.425Z,96719.16
2022-12-16T07:31:34.196Z,96717.63
2022-12-16T07:34:54.578Z,96723.63
2022-12-16T07:38:15.931Z,96726.66
2022-12-16T07:41:36.493Z,96719.59
2022-12-16T07:44:57.633Z,96721.06
2022-12-16T07:48:18.300Z,96728.03
2022-12-16T07:51:38.795Z,96736.91
2022-12-16T07:54:59.414Z,96743.97
2022-12-16T07:58:19.792Z,96756.63
2022-12-16T08:01:40.354Z,96769.31
2022-12-16T08:05:01.289Z,96760.47
2022-12-16T08:08:23.118Z,96760.91
2022-12-16T08:11:43.823Z,96769.72
2022-12-16T08:15:04.705Z,96769.56
2022-12-16T08:18:26.037Z,96779.75
2022-12-16T08:21:46.426Z,96792.28
2022-12-16T08:25:06.475Z,96799.16
2022-12-16T08:28:26.742Z,96803.72
2022-12-16T08:31:47.261Z,96809.16
2022-12-16T08:35:07.725Z,96818.94
2022-12-16T08:38:29.564Z,96823.94
2022-12-16T08:41:51.421Z,96823.13
2022-12-16T08:45:14.478Z,96820.16
2022-12-16T08:48:34.759Z,96827.84
2022-12-16T08:51:55.495Z,96835.34
2022-12-16T08:55:16.246Z,96838.19
2022-12-16T08:58:36.841Z,96841.31
2022-12-16T09:01:57.531Z,96828.28
2022-12-16T09:05:18.207Z,96823.63
2022-12-16T09:08:38.635Z,96816.88
2022-12-16T09:11:59.496Z,96824.38
2022-12-16T09:15:20.074Z,96820.69
2022-12-16T09:18:40.658Z,96827.03
2022-12-16T09:22:01.209Z,96827.91
2022-12-16T09:25:22.020Z,96843.47
2022-12-16T09:28:42.482Z,96840.72
2022-12-16T09:32:03.187Z,96849.19
2022-12-16T09:35:24.073Z,96852.75
2022-12-16T09:38:44.515Z,96850.75
2022-12-16T09:42:21.017Z,96837.50
2022-12-16T09:45:52.471Z,96845.97
2022-12-16T09:49:36.947Z,96856.06
2022-12-16T09:53:03.975Z,96864.09
2022-12-16T09:56:29.402Z,96867.75
2022-12-16T09:59:53.402Z,96857.81
2022-12-16T10:03:16.131Z,96855.94
2022-12-16T10:06:55.811Z,96856.22
2022-12-16T10:10:27.167Z,96850.22
2022-12-16T10:13:56.600Z,96856.88
2022-12-16T10:17:29.239Z,96861.91
2022-12-16T10:21:18.954Z,96863.09
2022-12-16T10:24:51.678Z,96866.13
2022-12-16T10:28:17.941Z,96857.66
2022-12-16T10:31:38.945Z,96857.41
2022-12-16T10:35:00.110Z,96874.56
2022-12-16T10:38:21.036Z,96864.91
2022-12-16T10:41:45.481Z,96858.41
2022-12-16T10:45:18.271Z,96876.50
2022-12-16T10:48:53.598Z,96870.81
2022-12-16T10:52:16.971Z,96881.75
2022-12-16T10:55:56.249Z,96874.88
2022-12-16T10:59:24.608Z,96884.16
2022-12-16T11:02:47.697Z,96879.03
2022-12-16T11:06:08.677Z,96889.09
2022-12-16T11:09:46.700Z,96896.69
2022-12-16T11:13:07.086Z,96870.66
2022-12-16T11:16:36.807Z,96870.41
2022-12-16T11:19:57.341Z,96870.66
2022-12-16T11:23:33.742Z,96873.25
2022-12-16T11:26:54.619Z,96874.81
2022-12-16T11:30:18.959Z,96875.47
2022-12-16T11:33:43.214Z,96884.31
2022-12-16T11:37:04.823Z,96893.03
2022-12-16T11:40:31.629Z,96894.75
2022-12-16T11:43:52.646Z,96904.75
2022-12-16T11:47:13.295Z,96900.59
2022-12-16T11:50:36.354Z,96914.75
2022-12-16T11:54:04.340Z,96910.31
2022-12-16T11:57:41.624Z,96914.16
2022-12-16T12:01:17.129Z,96916.00
2022-12-16T12:04:38.165Z,96913.13
2022-12-16T12:08:10.369Z,96918.75
2022-12-16T12:11:49.540Z,96920.31
2022-12-16T12:15:18.974Z,96910.22
2022-12-16T12:19:18.497Z,96906.66
2022-12-16T12:22:45.385Z,96902.38
2022-12-16T12:26:31.544Z,96904.94
2022-12-16T12:30:19.087Z,96893.91
2022-12-16T12:34:09.034Z,96908.19
2022-12-16T12:38:12.755Z,96896.19
2022-12-16T12:42:08.436Z,96908.97
2022-12-16T12:45:53.548Z,96919.31
2022-12-16T12:49:22.859Z,96946.94
2022-12-16T12:52:55.680Z,96949.13
2022-12-16T12:56:24.548Z,96957.34
2022-12-16T12:59:50.643Z,96952.94
2022-12-16T13:03:26.016Z,96958.97
2022-12-16T13:06:47.617Z,96950.44
2022-12-16T13:10:30.796Z,96965.91
2022-12-16T13:13:53.092Z,96969.63
2022-12-16T13:17:13.814Z,96971.09
2022-12-16T13:20:53.102Z,96976.66
2022-12-16T13:24:13.620Z,96973.13
2022-12-16T13:27:35.696Z,96980.94
2022-12-16T13:30:56.443Z,96977.28
2022-12-16T13:34:23.216Z,96984.25
2022-12-16T13:37:44.683Z,96976.84
2022-12-16T13:41:13.511Z,96984.38
2022-12-16T13:45:02.740Z,96993.16
2022-12-16T13:48:24.653Z,97008.31
2022-12-16T13:51:57.561Z,97004.75
2022-12-16T13:56:05.356Z,97007.63
2022-12-16T13:59:34.045Z,97005.28
2022-12-16T14:02:58.391Z,96997.19
2022-12-16T14:06:20.550Z,96996.38
2022-12-16T14:10:01.917Z,97000.84
2022-12-16T14:13:26.769Z,97024.97
2022-12-16T14:17:02.919Z,97014.63
2022-12-16T14:20:39.493Z,97003.66
2022-12-16T14:24:06.545Z,97022.25
2022-12-16T14:27:36.514Z,97015.44
2022-12-16T14:30:57.872Z,97012.94
2022-12-16T14:34:21.237Z,97032.00
2022-12-16T14:37:57.342Z,97048.13
2022-12-16T14:41:18.516Z,97050.69
2022-12-16T14:44:42.033Z,97054.97
2022-12-16T14:48:02.476Z,97061.06
2022-12-16T14:51:52.891Z,97070.00
2022-12-16T14:55:13.429Z,97077.41
2022-12-16T14:58:36.504Z,97087.31
2022-12-16T15:01:57.332Z,97093.75
2022-12-16T15:05:19.492Z,97103.75
2022-12-16T15:08:40.581Z,97119.13
2022-12-16T15:12:03.364Z,97133.00
2022-12-16T15:15:27.740Z,97140.31
2022-12-16T15:18:52.030Z,97141.38
2022-12-16T15:22:25.930Z,97135.81
2022-12-16T15:25:51.046Z,97143.56
2022-12-16T15:29:12.402Z,97151.72
2022-12-16T15:32:45.286Z,97147.84
2022-12-16T15:36:05.597Z,97154.28
2022-12-16T15:39:39.427Z,97147.00
2022-12-16T15:43:00.127Z,97159.22
2022-12-16T15:46:20.894Z,97161.63
2022-12-16T15:49:48.109Z,97157.25
2022-12-16T15:53:52.815Z,97176.84
2022-12-16T15:57:22.810Z,97187.97
2022-12-16T16:01:06.879Z,97189.56
2022-12-16T16:04:41.129Z,97179.19
2022-12-16T16:12:46.524Z,97194.63
2022-12-16T16:21:10.870Z,97196.16
2022-12-16T16:33:17.842Z,97198.63
2022-12-16T16:41:48.317Z,97193.66
2022-12-16T16:45:32.713Z,97204.00
2022-12-16T16:52:43.683Z,97207.44
2022-12-16T16:58:20.614Z,97198.69
2022-12-16T17:00:42.290Z,97204.94
2022-12-16T17:04:04.108Z,97228.78
2022-12-16T17:07:25.006Z,97225.59
2022-12-16T17:14:32.388Z,97227.88
2022-12-16T17:22:03.538Z,97238.00
2022-12-16T17:29:15.629Z,97245.75
2022-12-16T17:33:14.959Z,97250.47
2022-12-16T17:36:36.876Z,97262.69
2022-12-16T17:40:21.288Z,97257.72
2022-12-16T17:44:02.952Z,97263.31
2022-12-16T17:47:37.017Z,97263.72
2022-12-16T17:51:21.889Z,97266.28
2022-12-16T17:54:53.600Z,97274.03
2022-12-16T17:59:05.442Z,97272.91
2022-12-16T18:02:38.811Z,97272.06
2022-12-16T18:06:20.919Z,97278.78
2022-12-16T18:09:41.894Z,97287.97
2022-12-16T18:13:08.610Z,97293.13
2022-12-16T18:16:29.154Z,97296.78
2022-12-16T18:20:09.133Z,97298.19
2022-12-16T18:27:52.890Z,97300.78
2022-12-16T18:31:34.223Z,97292.09
2022-12-16T18:35:00.788Z,97295.91
2022-12-16T18:38:21.686Z,97299.84
2022-12-16T18:41:42.378Z,97298.09
2022-12-16T18:45:16.019Z,97293.66
2022-12-16T18:48:40.792Z,97295.41
2022-12-16T18:52:05.472Z,97312.53
2022-12-16T18:55:33.636Z,97322.88
2022-12-16T18:58:55.355Z,97329.28
2022-12-16T19:02:33.880Z,97339.94
2022-12-16T19:05:54.938Z,97348.06
2022-12-16T19:09:16.315Z,97333.41
2022-12-16T19:12:38.061Z,97321.81
2022-12-16T19:20:44.395Z,97314.41
2022-12-16T19:24:43.278Z,97319.34
2022-12-16T19:28:04.383Z,97335.25
2022-12-16T19:31:31.039Z,97355.38
2022-12-16T19:35:03.783Z,97375.69
2022-12-16T19:38:25.089Z,97369.91
2022-12-16T19:41:46.507Z,97378.16
2022-12-16T19:45:07.978Z,97387.13
2022-12-16T19:48:29.376Z,97396.34
2022-12-16T19:51:51.768Z,97406.22
2022-12-16T19:55:17.205Z,97404.06
2022-12-16T19:58:42.249Z,97396.81
2022-12-16T20:02:03.095Z,97403.22
2022-12-16T20:05:24.575Z,97395.06
2022-12-16T20:08:46.482Z,97380.56
2022-12-16T20:12:07.504Z,97374.59
2022-12-16T20:15:28.789Z,97376.19
2022-12-16T20:18:50.200Z,97371.03
2022-12-16T20:22:13.269Z,97363.16
2022-12-16T20:25:36.912Z,97358.38
2022-12-16T20:28:59.356Z,97361.47
2022-12-16T20:32:20.411Z,97367.31
2022-12-16T20:35:42.410Z,97371.34
2022-12-16T20:39:03.534Z,97365.75
2022-12-16T20:42:25.826Z,97383.28
2022-12-16T20:45:46.551Z,97396.19
2022-12-16T20:49:48.002Z,97425.94
2022-12-16T20:53:08.583Z,97442.22
2022-12-16T20:56:38.250Z,97450.41
2022-12-16T20:59:59.153Z,97446.34
2022-12-16T21:03:20.558Z,97450.84
2022-12-16T21:06:41.711Z,97458.75
2022-12-16T21:10:02.899Z,97465.69
2022-12-16T21:13:36.728Z,97467.00
2022-12-16T21:16:58.759Z,97455.56
2022-12-16T21:20:19.852Z,97449.38
2022-12-16T21:23:41.093Z,97440.97
2022-12-16T21:27:01.988Z,97439.41
2022-12-16T21:30:23.073Z,97451.72
2022-12-16T21:33:44.703Z,97471.59
2022-12-16T21:37:09.911Z,97463.59
2022-12-16T21:40:33.701Z,97455.44
2022-12-16T21:44:04.048Z,97466.91
2022-12-16T21:47:25.124Z,97462.59
2022-12-16T21:50:45.904Z,97466.00
2022-12-16T21:54:09.862Z,97464.19
2022-12-16T21:57:30.647Z,97461.66
2022-12-16T22:00:53.572Z,97480.75
2022-12-16T22:04:20.040Z,97491.97
2022-12-16T22:07:40.761Z,97504.31
2022-12-16T22:11:24.466Z,97507.53
2022-12-16T22:14:45.058Z,97525.09
2022-12-16T22:18:05.572Z,97510.94
2022-12-16T22:21:26.357Z,97511.75
2022-12-16T22:24:46.826Z,97519.00
2022-12-16T22:28:07.539Z,97515.03
2022-12-16T22:31:28.158Z,97502.88
2022-12-16T22:34:48.590Z,97501.91
2022-12-16T22:38:09.192Z,97506.69
2022-12-16T22:41:30.493Z,97515.59
2022-12-16T22:44:51.375Z,97523.38
2022-12-16T22:48:12.582Z,97533.63
2022-12-16T22:51:33.800Z,97537.88
2022-12-16T22:54:54.972Z,97532.41
2022-12-16T22:58:15.686Z,97544.94
2022-12-16T23:01:36.532Z,97540.88
2022-12-16T23:04:57.490Z,97554.84
2022-12-16T23:08:46.235Z,97575.09
2022-12-16T23:12:06.718Z,97572.75
2022-12-16T23:15:30.509Z,97565.94
2022-12-16T23:18:50.936Z,97556.16
2022-12-16T23:22:16.677Z,97567.69
2022-12-16T23:25:41.246Z,97566.94
2022-12-16T23:29:02.261Z,97566.72
2022-12-16T23:32:31.563Z,97563.06
2022-12-16T23:35:52.372Z,97564.63
2022-12-16T23:39:19.789Z,97568.19
2022-12-16T23:42:41.312Z,97572.44
2022-12-16T23:46:05.630Z,97579.22
2022-12-16T23:49:27.458Z,97588.19
2022-12-16T23:52:52.002Z,97603.78
2022-12-16T23:56:17.601Z,97581.69
2022-12-16T23:59:38.362Z,97582.84
